Oak Hammock Air Park

CAV9 · 曼尼托巴, 加拿大

罗盘
风向 的 风向 340°
风: 22 kt, 6 beaufort

添加一条跑道以查看侧风和逆风信息。

添置 跑道
0 ft 1.000 2.000 3.000 4.000 5.000
Cloud Cloud Cloud Cloud Cloud Cloud
BKN 1.700
METAR CYWG 271000Z 34022KT 4SM BLSN BKN017 M11/M13 A2954 RMK SC7 SLP023

METAR Oak Hammock Air Park - CAV9

Oak Hammock Air Park是,加拿大中的小机场。 视场标高为755 ft。 该领域的国际民航组织标志是CAV9.

这份报告是针对2023年1月27日 04:00, 当地时间在Winnipeg / James Armstrong Richardson International Airport进行的。

机场观察

风向为340°,速度为22 kt。

可见度为4 mi。

有碎云在1.700 ft的高度。 破损或更高的上限为1.700 ft。

当前天气为吹 雪。 温度为-11 °C,阵风为-26 °C。 露点为-13 °C,相对湿度为85%。 海平面上的气压为29,54 inHg (QNH)。

白天

今天,太阳从08:08升起,在17:13降落。 这适用于Oak Hammock Air Park,世界夏令时可能有所不同。 当地时间与世界标准时间之间的时差为-6 小时。 当前,没有夏令时有效。

公司介绍

我们没有关于这个机场的公司信息。

体会

到Vliegles.nl去找飞行课程,跳伞和其他飞行体验。 浏览页面,了解Oak Hammock Air Park附近所有可用的活动。 你也可以使用搜索功能来寻找你所在地附近的特定飞行课程、跳伞或其他飞行体验。

乌云

1.700 ft BKN 碎云

温度 & 天气

天气 吹 雪
温度 -11 °C
露点 -13 °C
相对湿度 85%
风寒 -26 °C
Kp-index 2 (0-9)

评论

SLP023海平面压力为29,60 inHg (29,60 inHg)
SC7

白天

日出
08:08 (3:04)
中午
12:41
日落
17:14

小工具

你想在你的网站上有一个关于Oak Hammock Air Park的当前航空天气(METAR)的小部件吗?

显示HTML代码

我们和第三方通过cookies跟踪您在我们网站上的互联网行为。如果你继续,我们认为你同意我们的饼干政策